Time;durP1;ratioP1;P1;durP2;ratioP2;P2;SDS_P1;SDS_P2;PMS_P1;PMS_P2;Temp;Humidity;BMP_temperature;BMP_pressure;BME280_temperature;BME280_humidity;BME280_pressure;Samples;Min_cycle;Max_cycle;Signal;HPM_P1;HPM_P2
2022/12/18 00:02:05;;;;;;;14.25;3.83;;;-11.10;99.90;;;;;;4993866;28;20201;-60
2022/12/18 00:04:32;;;;;;;9.15;3.85;;;-11.10;99.90;;;;;;4994275;28;20210;-63
2022/12/18 00:06:58;;;;;;;8.02;3.58;;;-11.20;99.90;;;;;;4993808;28;20223;-62
2022/12/18 00:09:25;;;;;;;5.75;4.65;;;-11.10;99.90;;;;;;4994038;28;20279;-63
2022/12/18 00:11:52;;;;;;;9.25;3.58;;;-11.20;99.90;;;;;;4993118;28;20207;-62
2022/12/18 00:14:19;;;;;;;3.90;2.70;;;-11.10;99.90;;;;;;4994055;28;20215;-62
2022/12/18 00:16:47;;;;;;;12.63;6.75;;;-11.10;99.90;;;;;;4994093;28;20298;-62
2022/12/18 00:19:15;;;;;;;8.45;6.55;;;-11.10;99.90;;;;;;4993694;28;20228;-62
2022/12/18 00:21:43;;;;;;;5.90;5.35;;;-11.10;99.90;;;;;;4993643;28;20203;-63
2022/12/18 00:24:10;;;;;;;12.02;6.32;;;-11.10;99.90;;;;;;4993333;28;20210;-63
2022/12/18 00:26:39;;;;;;;11.73;5.60;;;-11.10;99.90;;;;;;4994005;28;20203;-62
2022/12/18 00:29:08;;;;;;;6.90;4.70;;;-11.10;99.90;;;;;;4994115;28;20658;-62
2022/12/18 00:31:35;;;;;;;3.97;3.72;;;-11.10;99.90;;;;;;4993533;28;20215;-63
2022/12/18 00:34:03;;;;;;;9.90;3.30;;;-11.10;99.90;;;;;;4994342;28;20203;-62
2022/12/18 00:36:31;;;;;;;8.68;5.35;;;-11.00;99.90;;;;;;4994216;28;20947;-62
2022/12/18 00:38:59;;;;;;;7.05;4.88;;;-11.10;99.90;;;;;;4993867;28;20242;-62
2022/12/18 00:44:13;;;;;;;10.38;5.72;;;-11.00;99.90;;;;;;4993585;28;20206;-63
2022/12/18 00:46:40;;;;;;;7.00;4.05;;;-11.00;99.90;;;;;;4993722;28;20210;-63
2022/12/18 00:49:09;;;;;;;15.75;5.28;;;-11.00;99.90;;;;;;4993336;28;20214;-63
2022/12/18 00:51:36;;;;;;;8.98;6.68;;;-11.10;99.90;;;;;;4992946;28;20207;-61
2022/12/18 00:54:02;;;;;;;6.97;5.18;;;-11.10;99.90;;;;;;4993132;28;20210;-62
2022/12/18 00:56:29;;;;;;;9.95;6.25;;;-11.10;99.90;;;;;;4992626;28;20211;-63
2022/12/18 00:58:56;;;;;;;15.70;5.72;;;-11.10;99.90;;;;;;4992273;28;20231;-62
2022/12/18 01:01:23;;;;;;;4.78;4.25;;;-11.10;99.90;;;;;;4992235;28;20208;-61
2022/12/18 01:03:49;;;;;;;8.15;5.20;;;-11.20;99.90;;;;;;4993248;28;20207;-62
2022/12/18 01:06:17;;;;;;;11.13;4.90;;;-11.20;99.90;;;;;;4992694;28;20203;-63
2022/12/18 01:08:44;;;;;;;5.07;4.60;;;-11.20;99.90;;;;;;4993284;28;20227;-62
2022/12/18 01:11:13;;;;;;;6.82;6.18;;;-11.30;99.90;;;;;;4992115;28;20203;-63
2022/12/18 01:13:40;;;;;;;8.68;4.80;;;-11.20;99.90;;;;;;4993118;28;20218;-63
2022/12/18 01:16:08;;;;;;;5.93;4.93;;;-11.30;99.90;;;;;;4993091;28;20227;-62
2022/12/18 01:18:35;;;;;;;5.60;5.05;;;-11.30;99.90;;;;;;4992722;28;20254;-63
2022/12/18 01:21:06;;;;;;;7.60;5.00;;;-11.40;99.90;;;;;;4992529;28;20203;-63
2022/12/18 01:23:34;;;;;;;4.72;3.13;;;-11.40;99.90;;;;;;4992610;28;20207;-62
2022/12/18 01:26:05;;;;;;;9.00;6.70;;;-11.50;99.90;;;;;;4992808;28;20203;-63
2022/12/18 01:28:32;;;;;;;5.68;4.15;;;-11.50;99.90;;;;;;4992864;28;20235;-62
2022/12/18 01:31:09;;;;;;;19.77;9.68;;;-11.60;99.90;;;;;;4991975;28;20214;-63
2022/12/18 01:33:36;;;;;;;15.55;4.60;;;-11.60;99.90;;;;;;4992935;28;20210;-63
2022/12/18 01:36:03;;;;;;;11.43;4.28;;;-11.60;99.90;;;;;;4992286;28;20206;-62
2022/12/18 01:38:30;;;;;;;10.38;4.05;;;-11.60;99.90;;;;;;4992365;28;20223;-63
2022/12/18 01:40:59;;;;;;;8.82;6.10;;;-11.60;99.90;;;;;;4991631;28;20202;-63
2022/12/18 01:43:42;;;;;;;6.38;5.18;;;-11.60;99.90;;;;;;4992359;28;20203;-60
2022/12/18 01:46:09;;;;;;;4.70;4.40;;;-11.60;99.90;;;;;;4992594;28;20763;-63
2022/12/18 01:48:36;;;;;;;11.45;5.82;;;-11.70;99.90;;;;;;4992071;28;20230;-58
2022/12/18 01:51:03;;;;;;;6.75;4.90;;;-11.60;99.90;;;;;;4991618;28;20207;-62
2022/12/18 01:53:30;;;;;;;5.55;4.90;;;-11.70;99.90;;;;;;4991960;28;20214;-62
2022/12/18 01:56:00;;;;;;;3.15;2.90;;;-11.70;99.90;;;;;;4992340;28;20240;-62
2022/12/18 01:58:34;;;;;;;6.32;5.05;;;-11.70;99.90;;;;;;4992196;28;20231;-63
2022/12/18 02:01:01;;;;;;;3.85;3.55;;;-11.70;99.90;;;;;;4991283;28;20234;-62
2022/12/18 02:03:28;;;;;;;12.20;6.63;;;-11.60;99.90;;;;;;4991837;28;20211;-63
2022/12/18 02:06:02;;;;;;;2.33;1.85;;;-11.50;99.90;;;;;;4991718;28;20203;-63
2022/12/18 02:08:34;;;;;;;8.93;5.10;;;-11.50;99.90;;;;;;4991676;28;20223;-62
2022/12/18 02:11:08;;;;;;;8.55;5.15;;;-11.50;99.90;;;;;;4991133;28;20202;-63
2022/12/18 02:13:41;;;;;;;5.10;4.75;;;-11.50;99.90;;;;;;4991876;28;20211;-63
2022/12/18 02:16:16;;;;;;;4.60;4.25;;;-11.40;99.90;;;;;;4991900;28;20203;-63
2022/12/18 02:18:48;;;;;;;5.40;5.07;;;-11.40;99.90;;;;;;4991830;28;20230;-63
2022/12/18 02:21:26;;;;;;;7.53;5.22;;;-11.40;99.90;;;;;;4991225;28;20199;-63
2022/12/18 02:24:01;;;;;;;3.80;3.50;;;-11.40;99.90;;;;;;4991549;28;20589;-60
2022/12/18 02:26:35;;;;;;;8.65;5.45;;;-11.40;99.90;;;;;;4991529;28;20214;-62
2022/12/18 02:29:06;;;;;;;5.63;3.97;;;-11.40;99.90;;;;;;4991536;28;20877;-61
2022/12/18 02:31:44;;;;;;;4.65;3.83;;;-11.40;99.90;;;;;;4991297;28;20226;-63
2022/12/18 02:34:12;;;;;;;8.30;4.63;;;-11.40;99.90;;;;;;4991488;28;20458;-63
2022/12/18 02:36:41;;;;;;;6.15;4.00;;;-11.50;99.90;;;;;;4991241;28;20207;-63
2022/12/18 02:39:10;;;;;;;3.03;2.47;;;-11.60;99.90;;;;;;4991246;28;20590;-63
2022/12/18 02:41:39;;;;;;;4.78;4.18;;;-11.60;99.90;;;;;;4990709;28;20689;-62
2022/12/18 02:44:10;;;;;;;7.13;6.07;;;-11.60;99.90;;;;;;4991332;28;20214;-62
2022/12/18 02:46:40;;;;;;;6.68;6.07;;;-11.60;99.90;;;;;;4991088;28;20199;-61
2022/12/18 02:49:18;;;;;;;6.18;3.38;;;-11.70;99.90;;;;;;4991538;28;20200;-60
2022/12/18 02:51:53;;;;;;;5.43;3.35;;;-11.70;99.90;;;;;;4991145;28;20662;-62
2022/12/18 02:54:30;;;;;;;8.68;4.57;;;-11.70;99.90;;;;;;4990632;28;20848;-62
2022/12/18 02:57:06;;;;;;;10.23;6.65;;;-11.70;99.90;;;;;;4991389;28;20231;-61
2022/12/18 02:59:37;;;;;;;6.07;3.80;;;-11.80;99.90;;;;;;4990879;28;20226;-63
2022/12/18 03:02:11;;;;;;;3.15;2.72;;;-11.80;99.90;;;;;;4990593;28;20207;-62
2022/12/18 03:04:43;;;;;;;5.70;4.05;;;-11.70;99.90;;;;;;4991286;28;20203;-63
2022/12/18 03:07:14;;;;;;;4.65;2.65;;;-11.60;99.90;;;;;;4991126;28;20250;-63
2022/12/18 03:09:46;;;;;;;7.07;4.00;;;-11.60;99.90;;;;;;4991162;28;20199;-62
2022/12/18 03:12:25;;;;;;;5.10;3.35;;;-11.60;99.90;;;;;;4990122;28;20217;-62
2022/12/18 03:14:57;;;;;;;5.28;4.75;;;-11.60;99.90;;;;;;4991222;28;20682;-62
2022/12/18 03:17:28;;;;;;;2.95;2.13;;;-11.60;99.90;;;;;;4990653;28;20246;-62
2022/12/18 03:19:57;;;;;;;3.17;2.95;;;-11.60;99.90;;;;;;4991054;28;20219;-63
2022/12/18 03:22:27;;;;;;;8.02;5.95;;;-11.60;99.90;;;;;;4994011;28;20717;-62
2022/12/18 03:24:57;;;;;;;4.38;4.00;;;-11.60;99.90;;;;;;4995135;28;20225;-62
2022/12/18 03:27:26;;;;;;;3.10;2.92;;;-11.50;99.90;;;;;;4994928;28;20232;-63
2022/12/18 03:30:02;;;;;;;3.03;2.72;;;-11.50;99.90;;;;;;4994960;28;20199;-62
2022/12/18 03:32:34;;;;;;;3.58;3.28;;;-11.40;99.90;;;;;;4994533;28;20253;-62
2022/12/18 03:35:05;;;;;;;5.82;4.80;;;-11.40;99.90;;;;;;4994846;28;20585;-62
2022/12/18 03:37:32;;;;;;;4.75;3.78;;;-11.40;99.90;;;;;;4994970;28;20234;-60
2022/12/18 03:39:59;;;;;;;5.13;4.78;;;-11.40;99.90;;;;;;4994731;28;20218;-60
2022/12/18 03:42:31;;;;;;;2.50;2.30;;;-11.40;99.90;;;;;;4994175;28;20295;-63
2022/12/18 03:45:03;;;;;;;5.05;3.25;;;-11.50;99.90;;;;;;4994917;28;20214;-62
2022/12/18 03:47:37;;;;;;;6.38;2.97;;;-11.60;99.90;;;;;;4994527;28;20313;-62
2022/12/18 03:50:11;;;;;;;7.10;3.13;;;-11.60;99.90;;;;;;4994895;28;20197;-62
2022/12/18 03:52:43;;;;;;;6.10;5.50;;;-11.70;99.90;;;;;;4994441;28;20580;-57
2022/12/18 03:55:11;;;;;;;6.55;4.47;;;-11.60;99.90;;;;;;4994694;28;20211;-62
2022/12/18 03:57:40;;;;;;;10.98;5.57;;;-11.60;99.90;;;;;;4994955;28;20223;-63
2022/12/18 04:00:11;;;;;;;5.93;5.35;;;-11.70;99.90;;;;;;4994252;28;20228;-60
2022/12/18 04:02:42;;;;;;;8.50;3.30;;;-11.70;99.90;;;;;;4993925;28;20203;-63
2022/12/18 04:05:10;;;;;;;10.73;4.55;;;-11.70;99.90;;;;;;4994250;28;20705;-60
2022/12/18 04:07:38;;;;;;;4.45;4.13;;;-11.70;99.90;;;;;;4994346;28;20230;-62
2022/12/18 04:10:09;;;;;;;6.47;2.65;;;-11.70;99.90;;;;;;4993928;28;20191;-63
2022/12/18 04:12:37;;;;;;;8.60;4.75;;;-11.70;99.90;;;;;;4993762;28;20223;-63
2022/12/18 04:15:07;;;;;;;4.13;3.78;;;-11.70;99.90;;;;;;4994313;28;20199;-62
2022/12/18 04:17:34;;;;;;;7.30;4.00;;;-11.70;99.90;;;;;;4993865;28;20223;-62
2022/12/18 04:20:01;;;;;;;8.32;5.95;;;-11.70;99.90;;;;;;4994144;28;20250;-63
2022/12/18 04:22:28;;;;;;;7.90;2.92;;;-11.70;99.90;;;;;;4993059;28;20207;-61
2022/12/18 04:24:54;;;;;;;6.68;6.07;;;-11.70;99.90;;;;;;4994221;28;20207;-63
2022/12/18 04:27:22;;;;;;;7.53;5.18;;;-11.70;99.90;;;;;;4993841;28;20219;-62
2022/12/18 04:29:48;;;;;;;4.50;3.80;;;-11.70;99.90;;;;;;4993912;28;20200;-62
2022/12/18 04:32:16;;;;;;;5.38;3.60;;;-11.70;99.90;;;;;;4993016;28;20701;-62
2022/12/18 04:34:43;;;;;;;3.78;3.58;;;-11.70;99.90;;;;;;4993863;28;20207;-62
2022/12/18 04:37:11;;;;;;;2.58;2.33;;;-11.70;99.90;;;;;;4993936;28;20223;-63
2022/12/18 04:39:37;;;;;;;1.73;1.55;;;-11.70;99.90;;;;;;4993696;28;20199;-59
2022/12/18 04:42:04;;;;;;;4.68;3.70;;;-11.70;99.90;;;;;;4993318;28;20210;-62
2022/12/18 04:44:31;;;;;;;2.78;2.58;;;-11.70;99.90;;;;;;4993742;28;20211;-63
2022/12/18 04:46:57;;;;;;;4.30;3.97;;;-11.60;99.90;;;;;;4993615;28;20230;-62
2022/12/18 04:49:25;;;;;;;2.63;2.20;;;-11.50;99.90;;;;;;4993482;28;20227;-62
2022/12/18 04:51:52;;;;;;;6.43;4.20;;;-11.50;99.90;;;;;;4992830;28;20659;-62
2022/12/18 04:54:19;;;;;;;7.10;4.50;;;-11.40;99.90;;;;;;4993473;28;20207;-62
2022/12/18 04:56:46;;;;;;;3.20;3.00;;;-11.40;99.90;;;;;;4993355;28;20666;-60
2022/12/18 04:59:13;;;;;;;7.68;3.95;;;-11.40;99.90;;;;;;4973743;28;20208;-61
2022/12/18 05:01:39;;;;;;;6.50;5.80;;;-11.40;99.90;;;;;;4973648;28;20592;-62
2022/12/18 05:04:06;;;;;;;3.83;3.35;;;-11.50;99.90;;;;;;4973673;28;20211;-62
2022/12/18 05:06:34;;;;;;;8.25;5.35;;;-11.50;99.90;;;;;;4973428;28;20208;-61
2022/12/18 05:09:01;;;;;;;7.95;6.18;;;-11.60;99.90;;;;;;4975058;28;20220;-63
2022/12/18 05:11:28;;;;;;;5.85;3.50;;;-11.60;99.90;;;;;;4972966;28;20205;-63
2022/12/18 05:13:56;;;;;;;2.67;2.45;;;-11.70;99.90;;;;;;4973622;28;20238;-61
2022/12/18 05:16:23;;;;;;;4.07;3.78;;;-11.70;99.90;;;;;;4973407;28;20208;-60
2022/12/18 05:18:49;;;;;;;9.48;4.32;;;-11.80;99.90;;;;;;4974015;28;20227;-62
2022/12/18 05:21:16;;;;;;;5.78;4.57;;;-11.80;99.90;;;;;;4972495;28;20223;-62
2022/12/18 05:23:44;;;;;;;4.47;3.72;;;-11.80;99.90;;;;;;4973591;28;20207;-62
2022/12/18 05:26:16;;;;;;;7.50;5.70;;;-11.80;99.90;;;;;;4973549;28;20211;-61
2022/12/18 05:28:43;;;;;;;5.13;4.47;;;-11.80;99.90;;;;;;4973459;28;20596;-63
2022/12/18 05:31:10;;;;;;;11.30;4.05;;;-11.90;99.90;;;;;;4972920;28;20200;-62
2022/12/18 05:33:37;;;;;;;13.20;7.70;;;-11.90;99.90;;;;;;4973531;28;20275;-63
2022/12/18 05:36:07;;;;;;;5.72;2.90;;;-11.90;99.90;;;;;;4973556;28;20211;-62
2022/12/18 05:38:36;;;;;;;8.82;6.22;;;-11.90;99.90;;;;;;4973495;28;20220;-62
2022/12/18 05:41:04;;;;;;;6.88;4.10;;;-11.90;99.90;;;;;;4973216;28;20226;-62
2022/12/18 05:43:32;;;;;;;8.00;6.60;;;-11.90;99.90;;;;;;4974740;28;20312;-62
2022/12/18 05:46:03;;;;;;;9.68;3.40;;;-12.00;99.90;;;;;;4982538;28;20605;-62
2022/12/18 05:48:30;;;;;;;10.35;4.63;;;-12.00;99.90;;;;;;4982839;28;20232;-63
2022/12/18 05:51:03;;;;;;;6.55;2.50;;;-12.00;99.90;;;;;;4979811;28;20575;-63
2022/12/18 05:53:30;;;;;;;5.60;5.07;;;-11.90;99.90;;;;;;4980986;28;20671;-63
2022/12/18 05:56:01;;;;;;;4.82;4.18;;;-12.00;99.90;;;;;;4982932;28;20196;-63
2022/12/18 05:58:29;;;;;;;4.32;3.15;;;-12.00;99.90;;;;;;4980797;28;20227;-63
2022/12/18 06:00:55;;;;;;;7.90;3.97;;;-12.00;99.90;;;;;;4981353;28;20211;-63
2022/12/18 06:03:22;;;;;;;3.85;3.60;;;-12.00;99.90;;;;;;4980720;28;20238;-62
2022/12/18 06:05:49;;;;;;;4.70;4.30;;;-12.00;99.90;;;;;;4980778;28;20195;-63
2022/12/18 06:08:16;;;;;;;4.13;3.40;;;-12.10;99.90;;;;;;4981581;28;20219;-63
2022/12/18 06:10:43;;;;;;;3.55;3.15;;;-12.10;99.90;;;;;;4980384;28;20207;-61
2022/12/18 06:13:09;;;;;;;7.95;5.78;;;-12.10;99.90;;;;;;4980045;28;20200;-62
2022/12/18 06:15:38;;;;;;;4.47;2.92;;;-12.20;99.90;;;;;;4981982;28;20200;-60
2022/12/18 06:18:05;;;;;;;28.75;5.60;;;-12.20;99.90;;;;;;4980934;28;20290;-62
2022/12/18 06:20:32;;;;;;;13.27;7.60;;;-12.20;99.90;;;;;;4983951;28;20234;-62
2022/12/18 06:22:59;;;;;;;3.15;2.95;;;-12.30;99.90;;;;;;4980466;28;20637;-62
2022/12/18 06:25:26;;;;;;;3.30;2.95;;;-12.40;99.90;;;;;;4980449;28;20199;-62
2022/12/18 06:27:52;;;;;;;5.00;3.00;;;-12.40;99.90;;;;;;4981769;28;20230;-61
2022/12/18 06:30:19;;;;;;;2.70;2.50;;;-12.40;99.90;;;;;;4979566;28;20578;-63
2022/12/18 06:32:48;;;;;;;7.78;4.47;;;-12.50;99.90;;;;;;4980709;28;20195;-63
2022/12/18 06:35:15;;;;;;;6.55;2.70;;;-12.50;99.90;;;;;;4981458;28;20196;-62
2022/12/18 06:37:42;;;;;;;3.30;3.03;;;-12.50;99.90;;;;;;4980302;28;20992;-61
2022/12/18 06:40:10;;;;;;;6.90;3.47;;;-12.50;99.90;;;;;;4979984;28;20889;-61
2022/12/18 06:42:36;;;;;;;9.82;3.53;;;-12.50;99.90;;;;;;4982133;28;20203;-60
2022/12/18 06:45:03;;;;;;;8.18;4.05;;;-12.50;99.90;;;;;;4980519;28;20212;-62
2022/12/18 06:47:30;;;;;;;8.15;5.93;;;-12.50;99.90;;;;;;4979454;28;20230;-61
2022/12/18 06:49:58;;;;;;;4.15;3.85;;;-12.50;99.90;;;;;;4981547;28;20195;-63
2022/12/18 06:52:25;;;;;;;5.03;3.83;;;-12.40;99.90;;;;;;4979851;28;20223;-62
2022/12/18 06:54:51;;;;;;;3.55;3.25;;;-12.40;99.90;;;;;;4979517;28;20203;-63
2022/12/18 06:57:18;;;;;;;3.53;3.33;;;-12.40;99.90;;;;;;4979310;28;20216;-62
2022/12/18 06:59:45;;;;;;;3.10;2.90;;;-12.50;99.90;;;;;;4980542;28;20191;-63
2022/12/18 07:02:12;;;;;;;6.72;3.25;;;-12.50;99.90;;;;;;4980671;28;20224;-62
2022/12/18 07:04:39;;;;;;;2.55;2.20;;;-12.60;99.90;;;;;;4979623;28;20573;-59
2022/12/18 07:07:07;;;;;;;2.70;2.50;;;-12.60;99.90;;;;;;4984768;28;20227;-60
2022/12/18 07:09:34;;;;;;;3.72;2.30;;;-12.60;99.90;;;;;;4990579;28;20225;-62
2022/12/18 07:12:00;;;;;;;3.38;2.50;;;-12.60;99.90;;;;;;4989553;28;20674;-60
2022/12/18 07:14:27;;;;;;;2.53;2.42;;;-12.60;99.90;;;;;;4990432;28;20210;-62
2022/12/18 07:16:54;;;;;;;4.32;3.83;;;-12.60;99.90;;;;;;4990196;28;20204;-60
2022/12/18 07:19:20;;;;;;;2.65;2.40;;;-12.60;99.90;;;;;;4990185;28;20589;-62
2022/12/18 07:21:47;;;;;;;9.15;3.70;;;-12.50;99.90;;;;;;4989735;28;20323;-60
2022/12/18 07:24:15;;;;;;;2.95;2.60;;;-12.40;99.90;;;;;;4990385;28;20297;-60
2022/12/18 07:26:42;;;;;;;3.80;2.92;;;-12.40;99.90;;;;;;4983785;28;20193;-59
2022/12/18 07:29:09;;;;;;;4.75;4.28;;;-12.30;99.90;;;;;;4970629;28;20211;-62
2022/12/18 07:31:35;;;;;;;8.07;4.38;;;-12.20;99.90;;;;;;4970426;28;20580;-62
2022/12/18 07:34:02;;;;;;;3.25;2.95;;;-12.10;99.90;;;;;;4970613;28;20204;-63
2022/12/18 07:36:29;;;;;;;2.67;2.47;;;-12.10;99.90;;;;;;4970781;28;20591;-60
2022/12/18 07:38:56;;;;;;;3.03;1.95;;;-11.90;99.90;;;;;;4971045;28;20228;-61
2022/12/18 07:41:24;;;;;;;3.83;3.58;;;-11.90;99.90;;;;;;4969715;28;20228;-62
2022/12/18 07:43:50;;;;;;;4.85;3.60;;;-11.80;99.90;;;;;;4970859;28;20574;-61
2022/12/18 07:46:18;;;;;;;3.42;3.15;;;-11.70;99.90;;;;;;4970423;28;20204;-61
2022/12/18 07:48:45;;;;;;;1.70;1.55;;;-11.70;99.90;;;;;;4970644;28;20231;-61
2022/12/18 07:51:12;;;;;;;5.10;1.98;;;-11.60;99.90;;;;;;4980844;28;20200;-62
2022/12/18 07:53:40;;;;;;;4.75;4.38;;;-11.50;99.90;;;;;;4990271;28;20632;-62
2022/12/18 07:56:09;;;;;;;3.85;3.53;;;-11.30;99.90;;;;;;4990042;28;20214;-62
2022/12/18 07:58:37;;;;;;;5.60;5.07;;;-11.20;99.90;;;;;;4981997;28;20865;-62
2022/12/18 08:01:06;;;;;;;11.73;4.72;;;-10.80;99.90;;;;;;4984774;28;20234;-62
2022/12/18 08:03:33;;;;;;;3.63;3.33;;;-10.40;99.90;;;;;;4979011;28;20204;-62
2022/12/18 08:06:01;;;;;;;7.25;5.97;;;-9.90;99.90;;;;;;4980142;28;20206;-62
2022/12/18 08:08:28;;;;;;;7.40;6.65;;;-9.20;99.90;;;;;;4984001;28;20219;-62
2022/12/18 08:10:55;;;;;;;9.00;4.65;;;-8.50;99.90;;;;;;4982490;28;20199;-63
2022/12/18 08:13:22;;;;;;;16.75;7.65;;;-8.00;99.90;;;;;;4982445;28;20220;-63
2022/12/18 08:15:58;;;;;;;10.40;4.78;;;-7.40;99.90;;;;;;4980222;28;20212;-62
2022/12/18 08:18:25;;;;;;;17.88;5.55;;;-6.80;99.90;;;;;;4994071;28;20224;-62
2022/12/18 08:20:52;;;;;;;18.52;6.95;;;-6.40;99.90;;;;;;4977393;28;20210;-63
2022/12/18 08:23:18;;;;;;;14.55;6.88;;;-6.20;99.90;;;;;;4980786;28;20693;-63
2022/12/18 08:25:45;;;;;;;10.80;7.45;;;-6.00;99.90;;;;;;4993989;28;20217;-62
2022/12/18 08:28:12;;;;;;;9.82;6.72;;;-5.90;99.90;;;;;;4993996;28;20616;-60
2022/12/18 08:30:39;;;;;;;11.00;6.93;;;-5.60;99.90;;;;;;4993880;28;20203;-62
2022/12/18 08:33:07;;;;;;;13.65;6.40;;;-5.40;99.90;;;;;;4993306;28;20253;-62
2022/12/18 08:35:36;;;;;;;25.85;8.05;;;-5.30;99.90;;;;;;4993597;28;20206;-62
2022/12/18 08:38:03;;;;;;;7.03;5.55;;;-5.20;99.90;;;;;;4993810;28;20223;-62
2022/12/18 08:40:30;;;;;;;13.80;7.78;;;-5.00;99.90;;;;;;4990909;28;20203;-63
2022/12/18 08:45:40;;;;;;;16.48;7.35;;;-4.60;99.90;;;;;;4992894;28;20235;-62
2022/12/18 08:48:09;;;;;;;15.63;9.45;;;-4.50;99.90;;;;;;4991665;28;20226;-63
2022/12/18 08:50:35;;;;;;;15.73;8.20;;;-4.40;99.90;;;;;;4992817;28;20200;-63
2022/12/18 08:53:02;;;;;;;12.90;7.35;;;-4.80;99.90;;;;;;4992661;28;20653;-63
2022/12/18 08:55:29;;;;;;;12.48;9.82;;;-5.30;99.90;;;;;;4993437;28;20223;-63
2022/12/18 08:57:56;;;;;;;9.13;6.45;;;-5.60;99.90;;;;;;4993557;28;20227;-63
2022/12/18 09:00:22;;;;;;;11.98;7.63;;;-5.90;99.90;;;;;;4993004;28;20202;-63
2022/12/18 09:02:49;;;;;;;13.35;7.72;;;-6.20;99.90;;;;;;4993476;28;20235;-63
2022/12/18 09:05:17;;;;;;;14.52;6.68;;;-6.30;99.90;;;;;;4993172;28;20671;-61
2022/12/18 09:07:44;;;;;;;19.20;7.80;;;-6.40;99.90;;;;;;4993456;28;20227;-63
2022/12/18 09:10:11;;;;;;;9.77;5.60;;;-6.50;99.90;;;;;;4993130;28;20211;-63
2022/12/18 09:12:37;;;;;;;14.35;7.53;;;-6.50;99.90;;;;;;4992778;28;20207;-63
2022/12/18 09:15:05;;;;;;;12.88;6.57;;;-6.40;99.90;;;;;;4993291;28;20600;-62
2022/12/18 09:17:32;;;;;;;22.45;9.95;;;-6.20;99.90;;;;;;4992318;28;20242;-63
2022/12/18 09:19:58;;;;;;;8.10;5.30;;;-6.10;99.90;;;;;;4982389;28;20199;-63
2022/12/18 09:22:26;;;;;;;15.70;7.95;;;-5.80;99.90;;;;;;4981943;28;20227;-63
2022/12/18 09:24:53;;;;;;;22.00;8.57;;;-5.50;99.90;;;;;;4982041;28;20200;-64
2022/12/18 09:27:20;;;;;;;11.10;7.88;;;-4.50;99.90;;;;;;4983375;28;20216;-63
2022/12/18 09:29:47;;;;;;;13.98;7.88;;;-2.80;99.90;;;;;;4983005;28;20292;-63
2022/12/18 09:32:14;;;;;;;20.92;9.25;;;-0.80;99.90;;;;;;4980813;28;20675;-63
2022/12/18 09:34:41;;;;;;;14.20;8.50;;;0.70;99.90;;;;;;4982686;28;20672;-64
2022/12/18 09:37:08;;;;;;;18.15;9.10;;;1.90;99.90;;;;;;4984756;28;20220;-61
2022/12/18 09:39:36;;;;;;;17.80;9.00;;;3.30;99.90;;;;;;4979848;28;20208;-64
2022/12/18 09:42:02;;;;;;;16.88;9.77;;;4.60;99.00;;;;;;4982684;28;20231;-64
2022/12/18 09:44:33;;;;;;;17.48;10.18;;;5.80;97.70;;;;;;4979875;28;20210;-63
2022/12/18 09:47:11;;;;;;;20.23;11.20;;;6.90;96.60;;;;;;4972874;28;20225;-64
2022/12/18 09:49:42;;;;;;;16.10;10.10;;;8.20;93.70;;;;;;4973167;28;20206;-63
2022/12/18 09:52:16;;;;;;;14.32;10.15;;;8.90;93.10;;;;;;4971614;28;20311;-62
2022/12/18 09:54:48;;;;;;;19.15;10.38;;;9.70;90.70;;;;;;5002869;28;20211;-62
2022/12/18 09:57:18;;;;;;;16.25;10.00;;;10.10;90.30;;;;;;5011254;28;20230;-62
2022/12/18 09:59:50;;;;;;;14.60;10.00;;;10.60;90.30;;;;;;5011291;28;20208;-61
2022/12/18 10:02:20;;;;;;;15.05;9.90;;;11.50;89.30;;;;;;5010281;28;20394;-62
2022/12/18 10:04:59;;;;;;;15.75;10.27;;;12.30;82.20;;;;;;5010996;28;20573;-62
2022/12/18 10:07:33;;;;;;;17.17;11.13;;;12.60;83.70;;;;;;5010873;28;20249;-65
2022/12/18 10:10:08;;;;;;;21.27;11.27;;;12.60;81.70;;;;;;5011019;28;20203;-63
2022/12/18 10:12:43;;;;;;;17.85;10.40;;;12.00;79.40;;;;;;5010822;28;20209;-63
2022/12/18 10:15:18;;;;;;;15.55;9.90;;;11.10;81.70;;;;;;5010356;28;20237;-62
2022/12/18 10:17:50;;;;;;;17.85;9.90;;;10.30;83.30;;;;;;5011170;28;20217;-63
2022/12/18 10:20:25;;;;;;;15.95;11.02;;;11.10;83.00;;;;;;4999033;28;20206;-63
2022/12/18 10:22:58;;;;;;;20.17;9.90;;;12.20;80.10;;;;;;4991061;28;20248;-63
2022/12/18 10:25:31;;;;;;;19.15;11.93;;;10.60;79.50;;;;;;4991220;28;20204;-63
2022/12/18 10:28:07;;;;;;;21.45;11.90;;;9.50;82.80;;;;;;4990944;28;20222;-63
2022/12/18 10:30:34;;;;;;;16.85;9.10;;;9.10;84.10;;;;;;4990402;28;20216;-62
2022/12/18 10:33:02;;;;;;;17.60;10.27;;;8.30;85.30;;;;;;4991237;28;20206;-63
2022/12/18 10:35:29;;;;;;;14.00;9.85;;;9.00;85.60;;;;;;4991310;28;20227;-63
2022/12/18 10:38:07;;;;;;;19.08;10.88;;;9.30;84.60;;;;;;4991250;28;20286;-63
2022/12/18 10:40:50;;;;;;;17.08;9.60;;;10.30;83.80;;;;;;4990159;28;20226;-63
2022/12/18 10:43:22;;;;;;;19.95;10.07;;;11.70;80.60;;;;;;4991932;28;20227;-63
2022/12/18 10:46:15;;;;;;;15.00;8.98;;;12.50;80.00;;;;;;4991056;28;20203;-63
2022/12/18 10:48:52;;;;;;;13.15;9.85;;;12.50;80.20;;;;;;4991181;28;20233;-63
2022/12/18 10:51:24;;;;;;;14.07;9.52;;;12.00;77.70;;;;;;4990406;28;20577;-63
2022/12/18 10:54:01;;;;;;;17.08;10.35;;;10.40;79.50;;;;;;4990535;28;20204;-63
2022/12/18 10:56:32;;;;;;;19.05;12.43;;;9.50;83.40;;;;;;4991403;28;20266;-63
2022/12/18 10:59:01;;;;;;;17.65;10.32;;;8.10;85.00;;;;;;4990924;28;20223;-61
2022/12/18 11:01:29;;;;;;;20.20;10.88;;;8.20;85.90;;;;;;4971049;28;20208;-63
2022/12/18 11:04:09;;;;;;;16.20;9.90;;;8.60;88.30;;;;;;4971464;28;20204;-63
2022/12/18 11:06:54;;;;;;;18.63;10.85;;;10.10;83.80;;;;;;4971767;28;20213;-63
2022/12/18 11:09:22;;;;;;;17.23;10.05;;;9.90;83.50;;;;;;4977910;28;20200;-63
2022/12/18 11:11:53;;;;;;;15.57;9.73;;;9.40;84.60;;;;;;4989977;28;20200;-62
2022/12/18 11:14:23;;;;;;;15.13;9.90;;;8.60;85.00;;;;;;4991154;28;20244;-63
2022/12/18 11:16:51;;;;;;;15.95;10.00;;;8.90;85.60;;;;;;4990777;28;20204;-63
2022/12/18 11:19:29;;;;;;;16.13;9.43;;;8.90;84.60;;;;;;4990173;28;20567;-63
2022/12/18 11:21:56;;;;;;;19.38;10.27;;;8.90;86.10;;;;;;4990019;28;20218;-62
2022/12/18 11:24:28;;;;;;;20.45;10.77;;;8.80;86.80;;;;;;4981554;28;20207;-63
2022/12/18 11:26:56;;;;;;;17.60;11.05;;;9.30;85.40;;;;;;4970682;28;20207;-63
2022/12/18 11:29:27;;;;;;;16.27;9.10;;;9.10;85.80;;;;;;4978481;28;20580;-63
2022/12/18 11:32:26;;;;;;;20.05;11.25;;;8.90;86.60;;;;;;4990187;28;20215;-62
2022/12/18 11:34:58;;;;;;;13.25;8.55;;;7.90;88.10;;;;;;4990250;28;20199;-63
2022/12/18 11:37:25;;;;;;;18.25;10.63;;;7.60;89.50;;;;;;4990335;28;20247;-63
2022/12/18 11:39:56;;;;;;;17.88;9.73;;;7.80;89.50;;;;;;4990567;28;20763;-63
2022/12/18 11:42:31;;;;;;;18.38;11.35;;;7.70;89.40;;;;;;4991660;28;20215;-62
2022/12/18 11:45:01;;;;;;;18.27;9.88;;;7.40;89.20;;;;;;4995030;28;20203;-63
2022/12/18 11:47:38;;;;;;;16.10;10.55;;;6.70;89.80;;;;;;4994399;28;20235;-63
2022/12/18 11:50:13;;;;;;;22.80;11.73;;;6.50;90.60;;;;;;4975257;28;20207;-63
2022/12/18 11:52:42;;;;;;;22.00;11.45;;;6.00;90.80;;;;;;4975115;28;20202;-63
2022/12/18 11:55:14;;;;;;;16.00;10.40;;;5.40;91.30;;;;;;4975134;28;20254;-63
2022/12/18 11:57:52;;;;;;;23.92;10.95;;;5.40;91.70;;;;;;4975131;28;20231;-63
2022/12/18 12:00:20;;;;;;;17.90;9.80;;;5.50;91.90;;;;;;4974432;28;20207;-63
2022/12/18 12:03:12;;;;;;;19.90;11.82;;;5.60;92.00;;;;;;4974717;28;20224;-63
2022/12/18 12:05:55;;;;;;;22.75;12.05;;;5.60;91.60;;;;;;4974831;28;20228;-63
2022/12/18 12:08:34;;;;;;;21.35;11.57;;;5.40;91.80;;;;;;4974817;28;20608;-63
2022/12/18 12:11:08;;;;;;;21.67;11.15;;;4.70;92.00;;;;;;4974464;28;20204;-63
2022/12/18 12:13:49;;;;;;;17.50;10.25;;;4.00;92.50;;;;;;4974655;28;20204;-62
2022/12/18 12:16:20;;;;;;;21.65;12.15;;;3.10;93.50;;;;;;4974134;28;20590;-63
2022/12/18 12:19:02;;;;;;;21.33;12.43;;;2.70;94.40;;;;;;4974517;28;20228;-62
2022/12/18 12:21:38;;;;;;;16.35;10.38;;;2.50;94.80;;;;;;4974166;28;20227;-62
2022/12/18 12:24:25;;;;;;;18.40;10.15;;;2.30;95.20;;;;;;4974384;28;20234;-62
2022/12/18 12:27:01;;;;;;;20.85;13.05;;;2.20;95.50;;;;;;4974706;28;20204;-62
2022/12/18 12:29:43;;;;;;;20.08;11.23;;;1.90;96.00;;;;;;4974409;28;20215;-62
2022/12/18 12:32:26;;;;;;;21.27;11.95;;;2.00;96.10;;;;;;4979222;28;20207;-62
2022/12/18 12:35:03;;;;;;;24.70;12.15;;;2.00;96.30;;;;;;4975088;28;20208;-61
2022/12/18 12:37:40;;;;;;;25.92;13.85;;;2.00;96.30;;;;;;4974186;28;20732;-62
2022/12/18 12:40:08;;;;;;;23.85;13.20;;;1.90;96.30;;;;;;4974440;28;20210;-62
2022/12/18 12:45:35;;;;;;;20.70;11.38;;;1.60;97.00;;;;;;4974747;28;20578;-63
2022/12/18 12:48:04;;;;;;;18.27;12.00;;;1.50;97.10;;;;;;4973741;28;20227;-63
2022/12/18 12:50:34;;;;;;;20.73;11.27;;;1.50;97.10;;;;;;4973736;28;20219;-63
2022/12/18 12:53:06;;;;;;;17.15;11.65;;;1.30;97.30;;;;;;4973663;28;20200;-63
2022/12/18 12:55:34;;;;;;;23.10;11.77;;;1.30;97.50;;;;;;4973813;28;20579;-63
2022/12/18 12:58:07;;;;;;;22.80;12.18;;;1.40;97.70;;;;;;4974091;28;20220;-63